Terminal Aerodrome Forecast
Issued by NWS

Home | Current Version | Previous Version | Text Only | Print | Product List | Glossary On
Versions: 1 2 3 4 5 6 7 8 9 10 11 12 13 14 15
222
FTUS45 KABQ 201120
TAFROW
TAF
KROW 201120Z 2012/2112 30006KT P6SM FEW250
     FM201500 36006KT P6SM SKC
     FM202000 17010KT P6SM SKC
     FM210300 22007KT P6SM SKC=

USA.gov is the U.S. government's official web portal to all federal, state and local government web resources and services.